Time;durP1;ratioP1;P1;durP2;ratioP2;P2;SDS_P1;SDS_P2;PMS_P1;PMS_P2;Temp;Humidity;BMP_temperature;BMP_pressure;BME280_temperature;BME280_humidity;BME280_pressure;Samples;Min_cycle;Max_cycle;Signal;HPM_P1;HPM_P2
2024/03/25 00:01:53;;;;;;;12.38;8.38;;;;;;;12.31;72.67;98009.19;5091051;28;20372;-39
2024/03/25 00:04:20;;;;;;;18.75;8.95;;;;;;;12.16;73.55;98009.06;5090955;28;20051;-39
2024/03/25 00:06:46;;;;;;;13.68;8.63;;;;;;;12.35;72.78;98006.81;5091080;28;20028;-39
2024/03/25 00:09:13;;;;;;;12.05;7.78;;;;;;;12.16;73.54;98003.75;5091124;28;20027;-39
2024/03/25 00:11:42;;;;;;;13.25;8.82;;;;;;;12.09;73.79;98007.44;5091195;28;20030;-38
2024/03/25 00:14:07;;;;;;;11.70;8.52;;;;;;;11.93;73.83;97992.38;5091537;28;20027;-38
2024/03/25 00:16:33;;;;;;;13.55;8.60;;;;;;;11.65;75.21;98004.09;5091215;28;20027;-39
2024/03/25 00:18:59;;;;;;;13.07;8.43;;;;;;;11.97;74.67;98000.66;5090975;28;20020;-39
2024/03/25 00:21:24;;;;;;;11.68;8.38;;;;;;;11.96;74.00;97991.09;5090842;28;20108;-37
2024/03/25 00:23:50;;;;;;;15.32;8.45;;;;;;;12.05;73.37;98003.69;5090457;28;20020;-39
2024/03/25 00:26:15;;;;;;;13.77;8.45;;;;;;;12.18;72.80;97993.63;5090892;28;20024;-39
2024/03/25 00:28:40;;;;;;;14.63;8.13;;;;;;;12.11;72.67;97989.31;5090951;28;20032;-40
2024/03/25 00:31:06;;;;;;;13.43;8.85;;;;;;;11.88;73.86;97985.13;5090837;28;20132;-39
2024/03/25 00:33:32;;;;;;;12.35;8.10;;;;;;;11.85;73.90;97980.28;5090468;28;20055;-38
2024/03/25 00:35:57;;;;;;;12.68;8.48;;;;;;;11.60;75.24;97978.22;5090389;28;20434;-39
2024/03/25 00:38:23;;;;;;;10.82;7.68;;;;;;;11.65;74.53;97969.47;5090719;28;20116;-39
2024/03/25 00:40:50;;;;;;;11.48;8.23;;;;;;;11.64;75.66;97970.53;5090658;28;20525;-39
2024/03/25 00:43:15;;;;;;;12.32;7.60;;;;;;;11.24;76.19;97985.06;5090598;28;20369;-38
2024/03/25 00:45:41;;;;;;;14.10;7.85;;;;;;;11.53;75.68;97974.94;5090619;28;20480;-38
2024/03/25 00:48:07;;;;;;;12.52;8.05;;;;;;;11.72;74.93;97976.19;5090466;28;20686;-39
2024/03/25 00:50:32;;;;;;;11.75;7.75;;;;;;;11.88;73.79;97974.47;5090453;28;20024;-39
2024/03/25 00:52:58;;;;;;;12.07;8.15;;;;;;;11.68;74.63;97983.09;5090555;28;20024;-39
2024/03/25 00:55:24;;;;;;;12.25;7.95;;;;;;;11.67;74.21;97993.97;5090356;28;20028;-38
2024/03/25 00:57:50;;;;;;;11.20;7.93;;;;;;;11.99;73.01;98007.34;5089961;28;20031;-39
2024/03/25 01:00:16;;;;;;;11.43;7.70;;;;;;;11.81;73.17;97978.41;5090520;28;20016;-39
2024/03/25 01:02:42;;;;;;;13.00;8.27;;;;;;;11.90;73.73;97987.56;5090112;28;20024;-39
2024/03/25 01:05:07;;;;;;;14.60;7.97;;;;;;;11.79;73.76;97991.97;5090589;28;20078;-39
2024/03/25 01:07:33;;;;;;;12.90;8.40;;;;;;;11.55;74.89;98002.16;5090463;28;20074;-39
2024/03/25 01:09:58;;;;;;;10.93;7.95;;;;;;;11.53;74.73;98030.91;5090101;28;20209;-39
2024/03/25 01:12:25;;;;;;;11.85;7.57;;;;;;;11.50;75.12;98063.38;5090126;28;20036;-41
2024/03/25 01:14:51;;;;;;;10.90;8.25;;;;;;;11.29;76.71;98094.28;5090003;28;20108;-38
2024/03/25 01:17:17;;;;;;;12.80;7.63;;;;;;;11.37;76.91;98122.34;5089816;28;20094;-41
2024/03/25 01:19:43;;;;;;;13.18;8.05;;;;;;;11.40;75.94;98130.63;5089791;28;20098;-38
2024/03/25 01:22:08;;;;;;;12.85;7.97;;;;;;;11.44;76.44;98137.09;5090112;28;20051;-38
2024/03/25 01:24:34;;;;;;;14.43;8.50;;;;;;;11.54;77.79;98134.53;5090236;28;20164;-36
2024/03/25 01:27:00;;;;;;;15.68;10.48;;;;;;;11.38;78.71;98129.28;5089897;28;20101;-36
2024/03/25 01:29:25;;;;;;;16.00;10.60;;;;;;;11.51;78.64;98127.03;5089899;28;20024;-38
2024/03/25 01:31:51;;;;;;;21.50;11.63;;;;;;;11.25;80.69;98130.44;5090029;28;20031;-39
2024/03/25 01:34:16;;;;;;;19.63;12.63;;;;;;;11.27;81.04;98152.31;5090100;28;20027;-38
2024/03/25 01:36:42;;;;;;;20.42;11.77;;;;;;;11.26;81.30;98177.34;5093937;28;20035;-38
2024/03/25 01:39:08;;;;;;;10.93;6.78;;;;;;;11.09;77.87;98190.69;5093987;28;20105;-40
2024/03/25 01:41:33;;;;;;;13.75;3.65;;;;;;;10.49;77.33;98190.31;5093643;28;20478;-37
2024/03/25 01:43:58;;;;;;;10.10;2.67;;;;;;;10.09;77.31;98203.63;5093963;28;20217;-38
2024/03/25 01:46:24;;;;;;;1.40;1.20;;;;;;;10.01;77.89;98207.47;5093909;28;20356;-40
2024/03/25 01:48:52;;;;;;;6.18;1.83;;;;;;;9.84;78.86;98206.63;5093357;28;20036;-40
2024/03/25 01:51:20;;;;;;;2.95;0.70;;;;;;;9.60;79.98;98206.69;5093705;28;20030;-40
2024/03/25 01:53:46;;;;;;;6.63;0.60;;;;;;;9.35;81.26;98215.72;5093734;28;20169;-39
2024/03/25 01:56:14;;;;;;;1.55;0.50;;;;;;;9.22;81.70;98226.59;5093668;28;20024;-39
2024/03/25 01:58:39;;;;;;;1.15;0.40;;;;;;;9.20;82.86;98229.47;5093441;28;20102;-40
2024/03/25 02:01:05;;;;;;;0.60;0.50;;;;;;;8.90;83.27;98245.50;5093333;28;20498;-40
2024/03/25 02:03:30;;;;;;;0.52;0.52;;;;;;;8.81;84.47;98238.91;5093178;28;20024;-40
2024/03/25 02:06:00;;;;;;;1.17;0.65;;;;;;;8.60;85.87;98233.13;5093218;28;20020;-39
2024/03/25 02:08:26;;;;;;;;;;;;;;;8.51;86.92;98231.81;5093793;28;20020;-40
2024/03/25 02:10:54;;;;;;;2.28;0.52;;;;;;;8.61;86.84;98237.38;5092940;28;19930;-40
2024/03/25 02:13:19;;;;;;;0.47;0.30;;;;;;;8.31;88.04;98231.25;5093579;28;20025;-40
2024/03/25 02:15:45;;;;;;;1.55;0.40;;;;;;;7.95;89.98;98230.31;5093585;28;20082;-40
2024/03/25 02:18:10;;;;;;;0.45;0.38;;;;;;;7.92;90.87;98228.91;5093640;28;20111;-40
2024/03/25 02:20:36;;;;;;;0.43;0.30;;;;;;;8.00;90.39;98222.50;5093866;28;20074;-40
2024/03/25 02:23:02;;;;;;;0.45;0.40;;;;;;;7.68;92.08;98221.88;5093412;28;20059;-40
2024/03/25 02:25:27;;;;;;;1.83;0.52;;;;;;;7.96;91.93;98222.13;5093352;28;20613;-40
2024/03/25 02:27:53;;;;;;;1.08;0.50;;;;;;;7.86;91.99;98218.41;5093158;28;20106;-40
2024/03/25 02:30:18;;;;;;;0.93;0.70;;;;;;;8.06;91.88;98218.97;5093027;28;20024;-40
2024/03/25 02:32:43;;;;;;;0.65;0.60;;;;;;;7.98;91.78;98206.03;5093061;28;20165;-40
2024/03/25 02:35:13;;;;;;;1.30;0.50;;;;;;;7.90;92.96;98204.50;5093230;28;20098;-40
2024/03/25 02:37:40;;;;;;;1.50;0.52;;;;;;;7.87;93.65;98196.19;5092529;28;20040;-39
2024/03/25 02:40:08;;;;;;;0.73;0.60;;;;;;;7.98;93.32;98206.81;5090351;28;20467;-39
2024/03/25 02:42:34;;;;;;;0.98;0.60;;;;;;;8.02;92.59;98201.91;5091591;28;20491;-39
2024/03/25 02:44:59;;;;;;;2.28;0.70;;;;;;;7.74;93.07;98205.91;5091279;28;20116;-39
2024/03/25 02:47:25;;;;;;;0.63;0.60;;;;;;;8.00;91.94;98209.25;5091560;28;20028;-39
2024/03/25 02:49:51;;;;;;;0.38;0.30;;;;;;;7.92;90.85;98209.56;5092164;28;20411;-38
2024/03/25 02:52:16;;;;;;;0.60;0.55;;;;;;;8.12;90.05;98206.66;5092394;28;20123;-39
2024/03/25 02:54:42;;;;;;;0.70;0.70;;;;;;;7.95;89.99;98207.25;5092271;28;20414;-39
2024/03/25 02:57:07;;;;;;;0.65;0.57;;;;;;;8.19;88.50;98199.44;5092386;28;20520;-39
2024/03/25 02:59:32;;;;;;;0.75;0.30;;;;;;;8.18;87.88;98214.50;5092053;28;20476;-39
2024/03/25 03:01:58;;;;;;;0.45;0.40;;;;;;;8.02;88.93;98226.53;5092324;28;20475;-39
2024/03/25 03:04:23;;;;;;;0.60;0.35;;;;;;;8.09;89.39;98231.75;5092142;28;20111;-42
2024/03/25 03:06:48;;;;;;;0.60;0.50;;;;;;;8.28;88.76;98231.69;5092084;28;20024;-40
2024/03/25 03:09:15;;;;;;;0.65;0.47;;;;;;;7.91;89.82;98227.28;5092546;28;20093;-39
2024/03/25 03:11:40;;;;;;;0.88;0.50;;;;;;;8.22;89.77;98218.34;5091926;28;20028;-39
2024/03/25 03:14:06;;;;;;;0.60;0.40;;;;;;;8.01;90.86;98227.59;5092361;28;20028;-39
2024/03/25 03:16:31;;;;;;;0.50;0.47;;;;;;;8.05;90.85;98213.88;5091975;28;20061;-39
2024/03/25 03:18:56;;;;;;;0.70;0.50;;;;;;;8.22;90.55;98209.56;5091879;28;20020;-40
2024/03/25 03:21:22;;;;;;;0.50;0.50;;;;;;;8.45;90.59;98200.88;5092031;28;20030;-39
2024/03/25 03:23:47;;;;;;;0.75;0.50;;;;;;;8.20;90.47;98199.19;5091892;28;20119;-39
2024/03/25 03:26:13;;;;;;;1.45;0.40;;;;;;;8.11;91.11;98205.84;5091670;28;20066;-39
2024/03/25 03:28:39;;;;;;;0.47;0.40;;;;;;;8.36;90.02;98210.19;5091818;28;20020;-39
2024/03/25 03:31:05;;;;;;;1.45;0.50;;;;;;;8.40;90.65;98200.75;5091608;28;20078;-39
2024/03/25 03:33:31;;;;;;;1.95;0.50;;;;;;;8.38;90.60;98197.53;5092197;28;20047;-39
2024/03/25 03:35:56;;;;;;;2.40;0.60;;;;;;;8.39;90.22;98199.91;5091782;28;20464;-39
2024/03/25 03:38:22;;;;;;;0.50;0.50;;;;;;;8.49;90.41;98203.91;5043414;28;1390124;-40
2024/03/25 03:41:00;;;;;;;0.68;0.57;;;;;;;8.32;91.11;98209.00;5092733;28;20250;-39
2024/03/25 03:43:26;;;;;;;0.75;0.50;;;;;;;8.11;90.59;98205.84;5092318;28;20654;-39
2024/03/25 03:45:51;;;;;;;2.35;0.70;;;;;;;7.87;91.03;98215.53;5092640;28;20098;-39
2024/03/25 03:48:17;;;;;;;1.23;0.80;;;;;;;7.88;90.57;98219.81;5092496;28;20113;-39
2024/03/25 03:50:42;;;;;;;0.85;0.82;;;;;;;7.84;90.97;98221.25;5092420;28;20505;-40
2024/03/25 03:53:08;;;;;;;1.77;0.60;;;;;;;7.96;89.82;98232.72;5092486;28;20028;-40
2024/03/25 03:55:33;;;;;;;1.67;0.50;;;;;;;7.78;89.15;98225.59;5092322;28;20024;-39
2024/03/25 03:57:59;;;;;;;0.73;0.50;;;;;;;7.72;89.02;98231.00;5090836;28;20024;-41
2024/03/25 04:00:24;;;;;;;0.63;0.45;;;;;;;7.58;88.62;98228.50;5091602;28;20104;-40
2024/03/25 04:02:49;;;;;;;0.80;0.63;;;;;;;8.04;86.81;98244.88;5105928;28;20038;-40
2024/03/25 04:05:15;;;;;;;1.25;0.40;;;;;;;7.70;88.17;98244.44;5098388;28;20028;-40
2024/03/25 04:07:40;;;;;;;0.77;0.60;;;;;;;7.96;87.64;98256.56;5091270;28;20031;-40
2024/03/25 04:10:06;;;;;;;0.52;0.40;;;;;;;8.13;85.92;98264.72;5091336;28;20092;-39
2024/03/25 04:12:32;;;;;;;1.38;0.63;;;;;;;7.90;85.64;98261.94;5091831;28;20024;-40
2024/03/25 04:14:57;;;;;;;0.95;0.50;;;;;;;7.86;85.81;98269.50;5083196;28;20080;-40
2024/03/25 04:17:23;;;;;;;0.88;0.70;;;;;;;7.96;84.19;98259.22;5085618;28;20516;-39
2024/03/25 04:19:51;;;;;;;1.10;0.52;;;;;;;7.76;84.75;98272.69;5091018;28;20372;-40
2024/03/25 04:22:17;;;;;;;2.35;1.52;;;;;;;7.70;84.49;98294.75;5092145;28;20027;-40
2024/03/25 04:24:43;;;;;;;1.30;0.90;;;;;;;7.54;84.77;98290.84;5091645;28;20448;-39
2024/03/25 04:27:09;;;;;;;1.17;1.02;;;;;;;7.57;83.90;98274.53;5091208;28;20038;-39
2024/03/25 04:29:34;;;;;;;1.20;0.80;;;;;;;7.47;83.28;98289.31;5091880;28;20032;-40
2024/03/25 04:31:59;;;;;;;1.13;0.73;;;;;;;7.53;83.27;98285.78;5090904;28;20019;-40
2024/03/25 04:34:25;;;;;;;1.15;0.85;;;;;;;7.62;83.08;98287.91;5091136;28;20034;-40
2024/03/25 04:36:50;;;;;;;1.67;1.30;;;;;;;7.50;82.57;98299.44;5090910;28;20106;-40
2024/03/25 04:39:16;;;;;;;2.13;1.30;;;;;;;7.48;82.36;98294.34;5091539;28;20046;-40
2024/03/25 04:41:41;;;;;;;1.52;1.13;;;;;;;7.38;82.15;98296.72;5091596;28;20030;-39
2024/03/25 04:44:06;;;;;;;1.15;1.05;;;;;;;7.37;81.30;98293.25;5091707;28;20024;-42
2024/03/25 04:46:32;;;;;;;0.77;0.70;;;;;;;7.35;81.25;98294.47;5080886;28;20023;-38
2024/03/25 04:48:57;;;;;;;0.85;0.68;;;;;;;7.58;79.71;98304.47;5086090;28;20089;-40
2024/03/25 04:51:23;;;;;;;1.92;1.10;;;;;;;7.46;79.44;98309.66;5090952;28;20020;-40
2024/03/25 04:53:48;;;;;;;9.52;6.53;;;;;;;8.47;98.23;98320.78;5090908;28;20085;-38
2024/03/25 04:56:13;;;;;;;11.75;7.13;;;;;;;10.06;86.88;98324.53;5090979;28;20028;-39
2024/03/25 04:58:39;;;;;;;6.20;2.55;;;;;;;11.49;72.94;98333.47;5091063;28;20032;-39
2024/03/25 05:01:04;;;;;;;0.68;0.60;;;;;;;10.09;65.47;98325.91;5091178;28;20470;-40
2024/03/25 05:03:29;;;;;;;1.25;1.02;;;;;;;9.02;69.36;98326.94;5091554;28;20409;-37
2024/03/25 05:05:55;;;;;;;1.75;1.00;;;;;;;8.41;71.51;98341.06;5091499;28;20022;-39
2024/03/25 05:08:20;;;;;;;3.70;1.60;;;;;;;8.13;72.15;98346.88;5091505;28;20024;-40
2024/03/25 05:10:46;;;;;;;1.58;1.30;;;;;;;8.48;71.82;98333.00;5090696;28;20030;-40
2024/03/25 05:13:11;;;;;;;4.95;3.05;;;;;;;8.75;74.22;98330.00;5090574;28;20372;-40
2024/03/25 05:15:37;;;;;;;4.30;2.17;;;;;;;9.19;73.46;98328.72;5090256;28;20020;-40
2024/03/25 05:18:02;;;;;;;3.75;2.13;;;;;;;8.98;70.27;98342.50;5090468;28;20476;-40
2024/03/25 05:20:28;;;;;;;3.35;1.88;;;;;;;9.02;69.97;98345.53;5090773;28;20035;-41
2024/03/25 05:22:53;;;;;;;2.40;1.58;;;;;;;8.87;70.73;98349.44;5090581;28;20020;-40
2024/03/25 05:25:18;;;;;;;2.22;1.40;;;;;;;8.59;70.54;98358.78;5090631;28;20055;-40
2024/03/25 05:27:44;;;;;;;6.22;2.97;;;;;;;9.15;75.31;98356.75;5089940;28;20031;-42
2024/03/25 05:30:09;;;;;;;1.73;1.30;;;;;;;9.05;68.13;98356.50;5090652;28;20438;-41
2024/03/25 05:32:35;;;;;;;3.30;1.55;;;;;;;8.80;68.62;98367.28;5091477;28;20390;-41
2024/03/25 05:35:00;;;;;;;2.28;1.48;;;;;;;8.79;72.48;98358.47;5091515;28;20020;-42
2024/03/25 05:37:25;;;;;;;1.67;1.40;;;;;;;9.02;71.29;98366.75;5091443;28;20048;-42
2024/03/25 05:39:51;;;;;;;3.13;1.80;;;;;;;9.76;70.03;98344.09;5091482;28;20103;-41
2024/03/25 05:42:16;;;;;;;2.10;1.60;;;;;;;9.72;66.31;98384.63;5091160;28;20113;-39
2024/03/25 05:44:41;;;;;;;2.03;1.45;;;;;;;9.50;68.08;98363.97;5091178;28;20015;-40
2024/03/25 05:47:07;;;;;;;1.63;1.30;;;;;;;10.16;66.92;98366.47;5091105;28;20027;-40
2024/03/25 05:49:32;;;;;;;2.80;1.60;;;;;;;10.21;66.51;98363.13;5091372;28;20077;-40
2024/03/25 05:51:57;;;;;;;5.63;1.40;;;;;;;10.13;64.26;98370.41;5091507;28;20050;-39
2024/03/25 05:54:23;;;;;;;2.50;1.60;;;;;;;11.00;62.77;98378.47;5090617;28;20024;-40
2024/03/25 05:56:48;;;;;;;2.50;1.80;;;;;;;11.34;61.40;98373.97;5090783;28;20085;-43
2024/03/25 05:59:13;;;;;;;2.90;1.33;;;;;;;11.52;59.81;98389.75;5090752;28;20019;-38
2024/03/25 06:01:40;;;;;;;1.98;1.50;;;;;;;11.50;58.77;98394.50;5089398;28;20057;-40
2024/03/25 06:04:05;;;;;;;1.52;1.40;;;;;;;11.14;59.58;98399.22;5090701;28;20028;-39
2024/03/25 06:06:30;;;;;;;5.00;1.67;;;;;;;11.23;58.46;98401.50;5090410;28;20046;-38
2024/03/25 06:08:56;;;;;;;2.15;1.30;;;;;;;10.93;59.59;98402.59;5090492;28;20024;-42
2024/03/25 06:11:21;;;;;;;2.55;1.98;;;;;;;11.18;59.49;98407.56;5090546;28;20091;-41
2024/03/25 06:13:47;;;;;;;2.25;1.92;;;;;;;10.94;59.05;98418.28;5091144;28;20506;-41
2024/03/25 06:16:13;;;;;;;4.72;2.00;;;;;;;10.61;59.10;98419.00;5090761;28;20125;-41
2024/03/25 06:18:40;;;;;;;3.05;2.13;;;;;;;10.74;59.24;98431.22;5090526;28;20016;-42
2024/03/25 06:21:05;;;;;;;3.08;2.20;;;;;;;10.85;58.52;98430.38;5092314;28;20103;-44
2024/03/25 06:23:31;;;;;;;3.33;2.03;;;;;;;10.39;59.22;98442.75;5094720;28;20162;-41
2024/03/25 06:25:56;;;;;;;3.30;2.30;;;;;;;10.56;59.12;98430.31;5094539;28;20027;-47
2024/03/25 06:28:22;;;;;;;4.50;2.70;;;;;;;10.92;58.31;98452.31;5094411;28;20031;-40
2024/03/25 06:36:17;;;;;;;5.03;3.25;;;;;;;10.37;59.24;98472.22;5094611;28;20089;-43
2024/03/25 06:38:42;;;;;;;4.75;3.00;;;;;;;10.05;60.90;98473.59;5093876;28;20051;-41
2024/03/25 06:41:08;;;;;;;7.95;2.90;;;;;;;9.83;60.92;98470.72;5094140;28;20020;-40
2024/03/25 06:43:34;;;;;;;3.97;2.88;;;;;;;9.88;60.85;98487.59;5094247;28;20016;-38
2024/03/25 06:45:59;;;;;;;4.97;3.20;;;;;;;10.22;60.09;98490.47;5093890;28;20020;-40
2024/03/25 06:48:25;;;;;;;10.50;4.07;;;;;;;10.33;59.62;98494.22;5093516;28;20024;-43
2024/03/25 06:50:57;;;;;;;4.88;3.03;;;;;;;10.28;59.98;98494.06;5093747;28;20032;-41
2024/03/25 06:53:23;;;;;;;4.55;2.92;;;;;;;10.32;60.28;98489.94;5093636;28;20140;-41
2024/03/25 06:55:58;;;;;;;7.45;3.10;;;;;;;10.87;58.67;98500.16;5093690;28;20447;-38
2024/03/25 06:58:25;;;;;;;3.55;2.70;;;;;;;10.25;59.78;98495.34;5094010;28;20165;-40
2024/03/25 07:00:51;;;;;;;5.85;3.00;;;;;;;10.38;59.25;98504.97;5093830;28;20101;-40
2024/03/25 07:03:17;;;;;;;11.27;3.50;;;;;;;10.43;59.25;98497.06;5093469;28;20516;-38
2024/03/25 07:05:54;;;;;;;6.82;3.22;;;;;;;10.68;58.82;98504.00;5093655;28;20511;-43
2024/03/25 07:08:20;;;;;;;3.63;2.78;;;;;;;10.04;60.27;98503.88;5093512;28;20518;-41
2024/03/25 07:10:45;;;;;;;4.82;2.88;;;;;;;10.04;60.71;98507.34;5093805;28;20016;-41
2024/03/25 07:13:11;;;;;;;4.70;3.20;;;;;;;10.45;59.97;98510.16;5093475;28;20016;-41
2024/03/25 07:15:36;;;;;;;5.32;2.80;;;;;;;10.85;59.12;98514.72;5093470;28;20099;-40
2024/03/25 07:18:03;;;;;;;4.53;2.83;;;;;;;11.57;55.87;98502.75;5093345;28;20503;-42
2024/03/25 07:20:29;;;;;;;9.98;3.38;;;;;;;12.26;54.32;98508.72;5093572;28;20047;-41
2024/03/25 07:22:57;;;;;;;4.72;3.15;;;;;;;12.60;53.08;98531.84;5093669;28;20020;-41
2024/03/25 07:25:23;;;;;;;5.85;2.90;;;;;;;12.85;52.55;98526.88;5093042;28;20024;-45
2024/03/25 07:27:48;;;;;;;5.72;3.47;;;;;;;12.89;52.21;98533.31;5093275;28;20108;-40
2024/03/25 07:30:14;;;;;;;5.78;3.28;;;;;;;13.16;52.04;98529.91;5093046;28;20090;-45
2024/03/25 07:32:40;;;;;;;4.65;2.90;;;;;;;13.96;49.24;98532.84;5091724;28;20024;-43
2024/03/25 07:35:07;;;;;;;6.38;3.08;;;;;;;14.15;48.40;98527.13;5093012;28;20450;-41
2024/03/25 07:37:32;;;;;;;5.82;3.35;;;;;;;13.64;48.72;98530.16;5093018;28;20048;-42
2024/03/25 07:39:58;;;;;;;3.85;2.60;;;;;;;13.08;50.19;98514.31;5093173;28;20407;-41
2024/03/25 07:42:23;;;;;;;5.95;3.40;;;;;;;12.80;50.77;98520.66;5092917;28;20024;-40
2024/03/25 07:44:48;;;;;;;5.85;3.50;;;;;;;13.55;49.53;98535.13;5093167;28;20081;-41
2024/03/25 07:47:14;;;;;;;7.28;3.05;;;;;;;13.89;48.31;98530.38;5092945;28;20035;-40
2024/03/25 07:49:39;;;;;;;4.97;3.17;;;;;;;13.94;48.35;98518.13;5092771;28;20023;-40
2024/03/25 07:52:05;;;;;;;5.25;3.08;;;;;;;13.49;48.49;98525.47;5092757;28;20392;-40
2024/03/25 07:54:31;;;;;;;6.70;2.88;;;;;;;13.37;48.55;98525.63;5092369;28;20030;-41
2024/03/25 07:56:56;;;;;;;4.35;3.00;;;;;;;13.13;49.01;98530.38;5092760;28;20027;-39
2024/03/25 07:59:21;;;;;;;6.15;3.15;;;;;;;13.10;48.31;98514.88;5092536;28;20020;-42
2024/03/25 08:01:47;;;;;;;4.95;2.80;;;;;;;13.65;47.61;98526.41;5092025;28;20031;-39
2024/03/25 08:04:12;;;;;;;5.78;2.88;;;;;;;14.59;45.92;98524.22;5092318;28;20020;-41
2024/03/25 08:06:38;;;;;;;7.55;3.20;;;;;;;14.68;44.10;98530.72;5092442;28;20031;-42
2024/03/25 08:09:06;;;;;;;3.20;2.40;;;;;;;14.50;43.99;98542.59;5092347;28;20020;-42
2024/03/25 08:11:32;;;;;;;4.30;2.72;;;;;;;13.80;43.76;98539.94;5092174;28;20107;-41
2024/03/25 08:13:58;;;;;;;5.28;2.70;;;;;;;13.89;43.85;98532.25;5092460;28;20024;-42
2024/03/25 08:16:24;;;;;;;3.20;2.58;;;;;;;14.62;44.03;98553.97;5091944;28;20026;-41
2024/03/25 08:18:50;;;;;;;3.33;2.50;;;;;;;14.25;44.15;98544.03;5092275;28;20020;-44
2024/03/25 08:21:15;;;;;;;5.95;2.90;;;;;;;14.54;43.33;98558.97;5092031;28;20029;-41
2024/03/25 08:23:40;;;;;;;4.55;2.72;;;;;;;14.46;43.19;98561.03;5092369;28;20095;-40
2024/03/25 08:26:06;;;;;;;2.95;2.40;;;;;;;14.34;42.95;98536.34;5091993;28;20016;-42
2024/03/25 08:28:32;;;;;;;6.75;2.80;;;;;;;14.00;42.70;98541.19;5092034;28;20020;-39
2024/03/25 08:30:58;;;;;;;6.50;2.60;;;;;;;14.03;43.01;98548.69;5091659;28;20024;-39
2024/03/25 08:33:23;;;;;;;6.32;2.50;;;;;;;13.88;42.51;98541.34;5091897;28;20099;-40
2024/03/25 08:35:48;;;;;;;4.25;2.22;;;;;;;13.84;42.90;98556.25;5091937;28;20032;-41
2024/03/25 08:38:14;;;;;;;6.18;2.33;;;;;;;13.55;42.78;98547.72;5091487;28;20474;-41
2024/03/25 08:40:40;;;;;;;4.82;2.72;;;;;;;13.64;42.34;98551.53;5091730;28;20066;-41
2024/03/25 08:43:06;;;;;;;4.97;2.50;;;;;;;13.80;42.54;98563.19;5091234;28;20020;-41
2024/03/25 08:45:32;;;;;;;4.13;2.33;;;;;;;13.79;42.34;98565.06;5091549;28;20089;-43
2024/03/25 08:47:57;;;;;;;5.03;2.40;;;;;;;14.64;41.57;98554.50;5091106;28;20028;-40
2024/03/25 08:50:22;;;;;;;3.15;2.33;;;;;;;15.29;39.19;98556.94;5091281;28;20020;-40
2024/03/25 08:52:48;;;;;;;6.53;2.33;;;;;;;15.58;39.49;98530.47;5091530;28;20285;-42
2024/03/25 08:55:13;;;;;;;5.85;2.50;;;;;;;16.10;38.58;98565.44;5091551;28;20399;-42
2024/03/25 08:57:38;;;;;;;3.03;2.42;;;;;;;16.08;37.87;98567.59;5091977;28;20077;-41
2024/03/25 09:00:04;;;;;;;4.68;2.50;;;;;;;16.61;36.70;98565.38;5091358;28;20027;-45
2024/03/25 09:02:30;;;;;;;4.75;2.40;;;;;;;16.57;36.88;98586.59;5091725;28;20024;-42
2024/03/25 09:04:56;;;;;;;3.15;2.42;;;;;;;16.32;37.54;98576.72;5091329;28;20031;-42
2024/03/25 09:07:21;;;;;;;3.63;2.30;;;;;;;16.38;36.16;98577.50;5091354;28;20031;-40
2024/03/25 09:12:31;;;;;;;3.58;2.72;;;;;;;15.84;38.37;98560.06;5091598;28;20411;-43
2024/03/25 09:14:56;;;;;;;4.25;2.25;;;;;;;15.65;37.96;98570.47;5091361;28;20406;-43
2024/03/25 09:17:24;;;;;;;6.88;2.50;;;;;;;15.65;36.81;98594.59;5091354;28;20024;-42
2024/03/25 09:19:50;;;;;;;3.33;2.30;;;;;;;15.43;36.88;98578.69;5091697;28;20024;-40
2024/03/25 09:22:15;;;;;;;4.53;2.20;;;;;;;15.38;37.03;98576.00;5090911;28;20423;-42
2024/03/25 09:24:41;;;;;;;6.22;2.15;;;;;;;16.06;36.71;98572.41;5091296;28;20080;-40
2024/03/25 09:27:06;;;;;;;5.25;2.10;;;;;;;16.74;35.13;98580.94;5091238;28;20059;-44
2024/03/25 09:29:31;;;;;;;2.90;2.05;;;;;;;16.01;35.16;98574.03;5091169;28;20096;-43
2024/03/25 09:31:57;;;;;;;2.80;2.20;;;;;;;16.01;35.31;98565.16;5091157;28;20020;-41
2024/03/25 09:34:22;;;;;;;2.70;2.10;;;;;;;16.45;35.09;98571.84;5091263;28;20495;-40
2024/03/25 09:36:47;;;;;;;4.82;2.25;;;;;;;15.64;36.74;98572.31;5090983;28;20020;-40
2024/03/25 09:39:13;;;;;;;4.70;2.70;;;;;;;16.38;36.54;98575.63;5090788;28;20055;-41
2024/03/25 09:41:43;;;;;;;4.07;2.50;;;;;;;16.16;35.42;98583.97;5091057;28;20121;-46
2024/03/25 09:44:09;;;;;;;;;;;;;;;16.34;35.28;98581.81;5091856;28;20024;-44
2024/03/25 09:46:36;;;;;;;3.65;2.50;;;;;;;17.21;34.22;98584.34;5090876;28;20433;-41
2024/03/25 09:49:05;;;;;;;3.17;1.92;;;;;;;17.31;33.61;98576.22;5091132;28;20047;-40
2024/03/25 09:51:31;;;;;;;5.30;2.65;;;;;;;16.65;34.83;98585.25;5090912;28;20028;-44
2024/03/25 09:53:56;;;;;;;4.20;2.10;;;;;;;16.36;33.70;98601.13;5090840;28;20024;-38
2024/03/25 09:56:22;;;;;;;2.95;2.03;;;;;;;15.96;33.41;98587.44;5093191;28;20035;-42
2024/03/25 09:58:48;;;;;;;3.58;2.30;;;;;;;16.32;34.13;98583.97;5094888;28;20392;-44
2024/03/25 10:01:14;;;;;;;3.55;2.03;;;;;;;16.00;33.22;98572.41;5095196;28;20091;-44
2024/03/25 10:03:39;;;;;;;3.95;2.00;;;;;;;16.03;34.47;98584.50;5095008;28;20028;-41
2024/03/25 10:06:05;;;;;;;4.38;2.30;;;;;;;16.01;34.31;98598.16;5094574;28;20052;-42
2024/03/25 10:08:30;;;;;;;3.75;2.08;;;;;;;16.06;33.78;98600.03;5094841;28;20024;-43
2024/03/25 10:10:56;;;;;;;3.88;2.03;;;;;;;16.08;34.28;98603.25;5094531;28;20032;-40
2024/03/25 10:13:22;;;;;;;3.50;2.20;;;;;;;15.93;33.72;98596.00;5094882;28;20115;-45
2024/03/25 10:15:48;;;;;;;3.10;2.15;;;;;;;15.86;34.88;98616.94;5094761;28;20480;-39
2024/03/25 10:18:14;;;;;;;5.80;2.30;;;;;;;15.68;34.91;98610.13;5094582;28;20036;-41
2024/03/25 10:20:48;;;;;;;3.55;2.20;;;;;;;16.11;34.51;98601.94;5094619;28;20031;-42
2024/03/25 10:23:13;;;;;;;3.60;1.88;;;;;;;16.49;32.97;98605.97;5094671;28;20411;-42
2024/03/25 10:25:39;;;;;;;4.13;2.00;;;;;;;16.22;33.08;98609.72;5094382;28;20020;-44
2024/03/25 10:28:05;;;;;;;4.30;2.20;;;;;;;16.31;33.36;98618.03;5094448;28;20028;-42
2024/03/25 10:30:30;;;;;;;2.80;2.17;;;;;;;16.52;33.52;98610.78;5094282;28;20023;-42
2024/03/25 10:32:59;;;;;;;5.13;2.20;;;;;;;16.47;33.36;98626.91;5094011;28;20102;-45
2024/03/25 10:35:27;;;;;;;2.80;2.20;;;;;;;16.50;33.51;98606.75;5094015;28;20032;-41
2024/03/25 10:37:59;;;;;;;4.70;2.40;;;;;;;16.65;32.73;98614.78;5094186;28;20074;-41
2024/03/25 10:40:28;;;;;;;2.60;2.00;;;;;;;15.99;33.70;98616.41;5093942;28;20553;-46
2024/03/25 10:43:02;;;;;;;5.75;2.10;;;;;;;16.40;32.52;98608.38;5094215;28;20126;-41
2024/03/25 10:45:31;;;;;;;7.20;2.20;;;;;;;17.02;31.94;98602.13;5094070;28;20115;-42
2024/03/25 10:47:59;;;;;;;2.30;1.70;;;;;;;17.07;31.11;98607.50;5094127;28;20016;-42
2024/03/25 10:50:28;;;;;;;3.30;2.10;;;;;;;16.74;31.95;98607.00;5094150;28;20065;-43
2024/03/25 10:52:54;;;;;;;2.75;2.00;;;;;;;16.52;32.03;98610.78;5094107;28;20039;-41
2024/03/25 10:55:21;;;;;;;3.13;2.10;;;;;;;16.53;32.72;98611.59;5093699;28;20042;-44
2024/03/25 10:57:48;;;;;;;2.30;1.83;;;;;;;16.26;33.27;98612.69;5094106;28;20024;-43
2024/03/25 11:00:15;;;;;;;2.00;1.80;;;;;;;15.54;33.86;98617.88;5093897;28;20024;-42
2024/03/25 11:02:44;;;;;;;3.60;2.10;;;;;;;15.93;33.50;98606.72;5093785;28;20106;-41
2024/03/25 11:05:11;;;;;;;4.78;2.10;;;;;;;16.49;33.33;98597.91;5093592;28;20042;-47
2024/03/25 11:07:38;;;;;;;2.53;2.00;;;;;;;16.29;33.48;98597.91;5093782;28;20535;-45
2024/03/25 11:10:07;;;;;;;3.60;1.98;;;;;;;16.08;31.80;98600.56;5093609;28;20506;-42
2024/03/25 11:12:35;;;;;;;2.20;1.67;;;;;;;15.78;32.65;98604.03;5093829;28;20028;-40
2024/03/25 11:15:05;;;;;;;1.80;1.55;;;;;;;15.89;32.85;98607.53;5093862;28;20115;-43
2024/03/25 11:17:32;;;;;;;2.47;1.63;;;;;;;15.23;33.27;98617.75;5093352;28;20020;-41
2024/03/25 11:20:15;;;;;;;2.25;1.60;;;;;;;15.94;32.44;98615.59;5093407;28;20032;-43
2024/03/25 11:22:52;;;;;;;2.22;1.70;;;;;;;15.68;32.59;98610.13;5093553;28;20042;-43
2024/03/25 11:25:20;;;;;;;2.60;2.00;;;;;;;16.09;32.04;98612.94;5093321;28;20045;-40
2024/03/25 11:27:45;;;;;;;4.70;2.15;;;;;;;16.18;32.52;98614.03;5093378;28;20119;-42
2024/03/25 11:30:12;;;;;;;2.55;1.92;;;;;;;16.59;31.64;98608.63;5093362;28;20115;-42
2024/03/25 11:32:46;;;;;;;4.20;2.30;;;;;;;16.55;32.82;98618.31;5093342;28;20028;-43
2024/03/25 11:35:12;;;;;;;4.38;2.05;;;;;;;16.89;32.12;98619.66;5093188;28;20032;-41
2024/03/25 11:37:41;;;;;;;3.08;1.90;;;;;;;16.09;32.62;98621.00;5092763;28;20140;-40